Time;durP1;ratioP1;P1;durP2;ratioP2;P2;SDS_P1;SDS_P2;PMS_P1;PMS_P2;Temp;Humidity;BMP_temperature;BMP_pressure;BME280_temperature;BME280_humidity;BME280_pressure;Samples;Min_cycle;Max_cycle;Signal;HPM_P1;HPM_P2
2022/05/11 00:01:49;;;;;;;;;;;14.30;73.50;;;13.36;68.72;96591.31;4029200;34;20128;-90
2022/05/11 00:04:18;;;;;;;;;;;14.30;73.50;;;13.35;68.79;96590.50;4050494;34;20035;-89
2022/05/11 00:06:49;;;;;;;;;;;14.30;73.50;;;13.36;68.66;96596.81;4028808;34;20412;-90
2022/05/11 00:09:18;;;;;;;;;;;14.30;73.40;;;13.34;68.64;96594.34;4073105;34;19988;-90
2022/05/11 00:11:48;;;;;;;;;;;14.30;73.40;;;13.34;68.41;96591.59;4028840;34;19912;-90
2022/05/11 00:14:16;;;;;;;;;;;14.20;73.30;;;13.33;68.84;96592.69;4028682;34;19912;-90
2022/05/11 00:16:45;;;;;;;;;;;14.20;73.30;;;13.34;68.77;96599.03;4028706;34;20225;-89
2022/05/11 00:19:14;;;;;;;;;;;14.20;73.20;;;13.34;68.85;96599.84;4028700;34;20089;-88
2022/05/11 00:21:43;;;;;;;;;;;14.20;73.30;;;13.32;68.54;96599.28;4028549;34;19986;-91
2022/05/11 00:24:11;;;;;;;;;;;14.20;73.20;;;13.32;68.60;96598.47;4071625;34;19912;-90
2022/05/11 00:26:40;;;;;;;;;;;14.20;73.20;;;13.32;68.76;96601.22;4049777;34;20460;-89
2022/05/11 00:29:10;;;;;;;;;;;14.20;73.20;;;13.32;68.65;96599.28;4028536;34;20444;-90
2022/05/11 00:31:39;;;;;;;;;;;14.20;73.20;;;13.32;68.69;96595.72;4072004;34;20248;-91
2022/05/11 00:34:07;;;;;;;;;;;14.20;73.20;;;13.32;68.86;96592.97;4028066;34;19905;-91
2022/05/11 00:36:37;;;;;;;;;;;14.20;73.30;;;13.31;68.92;96594.09;4050129;34;19951;-91
2022/05/11 00:39:05;;;;;;;;;;;14.20;73.30;;;13.31;68.81;96585.84;4028772;34;20053;-93
2022/05/11 00:41:34;;;;;;;;;;;14.20;73.30;;;13.30;68.90;96586.94;4028761;34;19905;-92
2022/05/11 00:44:04;;;;;;;;;;;14.20;73.30;;;13.30;68.73;96595.19;4028727;34;19912;-93
2022/05/11 00:46:37;;;;;;;;;;;14.20;73.30;;;13.29;68.50;96591.63;4075501;34;20022;-92
2022/05/11 00:51:58;;;;;;;;;;;14.20;73.30;;;13.29;68.54;96585.28;4076350;34;20040;-92
2022/05/11 00:54:26;;;;;;;;;;;14.20;73.30;;;13.28;68.73;96595.47;4098049;34;19905;-93
2022/05/11 00:56:59;;;;;;;;;;;14.20;73.20;;;13.29;68.88;96596.28;4053907;34;19912;-92
2022/05/11 00:59:31;;;;;;;;;;;14.20;73.20;;;13.27;68.71;96587.47;4097870;34;19911;-91
2022/05/11 01:02:04;;;;;;;;;;;14.20;73.20;;;13.26;68.56;96591.34;4050002;34;19984;-91
2022/05/11 01:04:34;;;;;;;;;;;14.20;73.20;;;13.27;68.72;96588.31;4049624;34;19912;-92
2022/05/11 01:07:03;;;;;;;;;;;14.20;73.30;;;13.27;68.72;96582.81;4048986;34;19905;-93
2022/05/11 01:09:31;;;;;;;;;;;14.10;73.30;;;13.26;68.80;96585.84;4028300;34;19913;-93
2022/05/11 01:12:00;;;;;;;;;;;14.20;73.30;;;13.24;68.76;96583.38;4049917;34;19982;-92
2022/05/11 01:14:31;;;;;;;;;;;14.20;73.30;;;13.26;68.28;96585.84;4071466;34;20338;-92
2022/05/11 01:17:01;;;;;;;;;;;14.20;73.30;;;13.26;68.64;96591.34;4049306;34;19912;-91
2022/05/11 01:19:32;;;;;;;;;;;14.10;73.30;;;13.25;68.77;96581.44;4028243;34;19905;-90
2022/05/11 01:22:05;;;;;;;;;;;14.10;73.30;;;13.24;68.69;96580.63;4049896;34;19908;-92
2022/05/11 01:24:38;;;;;;;;;;;14.10;73.30;;;13.24;68.68;96577.88;4049432;34;19912;-92
2022/05/11 01:27:31;;;;;;;;;;;14.10;73.30;;;13.24;68.72;96575.13;4049022;34;19905;-92
2022/05/11 01:30:02;;;;;;;;;;;14.10;73.30;;;13.25;68.59;96584.19;4049495;34;20106;-92
2022/05/11 01:32:31;;;;;;;;;;;14.10;73.20;;;13.24;69.08;96577.88;4028425;34;20319;-92
2022/05/11 01:35:23;;;;;;;;;;;14.10;73.20;;;13.24;68.54;96574.28;4049510;34;20030;-93
2022/05/11 01:38:02;;;;;;;;;;;14.10;73.30;;;13.22;68.56;96580.06;4027636;34;20389;-88
2022/05/11 01:40:32;;;;;;;;;;;14.10;73.20;;;13.23;68.39;96584.47;4027930;34;20058;-91
2022/05/11 01:43:00;;;;;;;;;;;14.10;73.20;;;13.23;68.55;96578.16;4070943;34;20161;-91
2022/05/11 01:45:29;;;;;;;;;;;14.10;73.20;;;13.20;68.63;96583.13;4049327;34;20175;-91
2022/05/11 01:47:58;;;;;;;;;;;14.10;73.20;;;13.23;68.69;96580.91;4053256;34;19912;-91
2022/05/11 01:50:27;;;;;;;;;;;14.10;73.20;;;13.21;68.60;96581.19;4071194;34;19905;-91
2022/05/11 01:52:55;;;;;;;;;;;14.10;73.10;;;13.20;68.66;96582.28;4042520;34;20157;-91
2022/05/11 01:55:24;;;;;;;;;;;14.10;73.20;;;13.20;68.53;96593.28;4049193;34;19912;-91
2022/05/11 01:57:54;;;;;;;;;;;14.10;73.20;;;13.20;68.55;96588.63;4063008;34;20086;-92
2022/05/11 02:00:23;;;;;;;;;;;14.10;73.20;;;13.22;68.69;96584.75;4070913;34;19905;-92
2022/05/11 02:02:51;;;;;;;;;;;14.10;73.20;;;13.19;68.90;96584.22;4041570;34;19913;-91
2022/05/11 02:08:11;;;;;;;;;;;14.10;73.20;;;13.20;68.65;96596.03;3994926;34;20091;-91
2022/05/11 02:10:39;;;;;;;;;;;14.10;73.20;;;13.19;68.62;96591.63;4039590;34;19930;-91
2022/05/11 02:13:09;;;;;;;;;;;14.10;73.20;;;13.18;68.60;96595.47;4049265;34;19905;-92
2022/05/11 02:15:38;;;;;;;;;;;14.10;73.30;;;13.18;68.57;96593.56;4070450;34;19905;-91
2022/05/11 02:18:07;;;;;;;;;;;14.10;73.20;;;13.17;68.42;96589.16;4069981;34;20220;-91
2022/05/11 02:20:36;;;;;;;;;;;14.10;73.20;;;13.18;68.53;96589.97;4048829;34;19905;-91
2022/05/11 02:23:05;;;;;;;;;;;14.00;73.10;;;13.16;68.61;96583.94;4070986;34;19912;-91
2022/05/11 02:25:33;;;;;;;;;;;14.10;73.30;;;13.16;68.60;96575.72;4070697;34;19908;-89
2022/05/11 02:28:02;;;;;;;;;;;14.10;73.20;;;13.17;68.47;96578.16;4048482;34;19959;-91
2022/05/11 02:30:33;;;;;;;;;;;14.00;73.10;;;13.16;68.53;96570.22;4091647;34;19912;-91
2022/05/11 02:33:02;;;;;;;;;;;14.10;73.20;;;13.16;68.68;96568.28;4042900;35;20132;-91
2022/05/11 02:35:31;;;;;;;;;;;14.10;73.30;;;13.15;68.42;96571.31;4048868;35;20143;-91
2022/05/11 02:38:03;;;;;;;;;;;14.00;73.00;;;13.14;68.56;96564.16;4026916;35;20153;-89
2022/05/11 02:40:33;;;;;;;;;;;14.10;73.30;;;13.12;68.48;96567.16;4027309;35;19912;-90
2022/05/11 02:43:02;;;;;;;;;;;14.10;73.20;;;13.14;68.60;96567.72;4048893;35;20267;-90
2022/05/11 02:45:33;;;;;;;;;;;14.00;73.00;;;13.15;68.66;96572.13;4048941;35;19908;-92
2022/05/11 02:48:02;;;;;;;;;;;14.10;73.20;;;13.12;68.60;96567.16;4027102;35;20025;-90
2022/05/11 02:50:34;;;;;;;;;;;14.10;73.20;;;13.14;68.42;96575.97;4027503;35;20140;-91
2022/05/11 02:53:07;;;;;;;;;;;14.00;73.10;;;13.12;68.38;96569.91;4027619;35;19905;-91
2022/05/11 02:55:36;;;;;;;;;;;14.00;73.10;;;13.11;68.64;96579.25;4071696;35;20089;-91
2022/05/11 02:58:05;;;;;;;;;;;14.00;73.10;;;13.11;68.65;96573.75;4070163;35;20051;-91
2022/05/11 03:00:36;;;;;;;;;;;14.00;73.20;;;13.12;68.53;96580.91;4048809;35;19912;-91
2022/05/11 03:03:05;;;;;;;;;;;14.00;73.20;;;13.12;68.63;96574.59;4027372;35;19912;-92
2022/05/11 03:05:34;;;;;;;;;;;14.00;73.20;;;13.12;68.38;96577.34;4048880;35;19905;-91
2022/05/11 03:08:03;;;;;;;;;;;14.00;73.10;;;13.13;68.30;96588.06;4048269;35;19912;-91
2022/05/11 03:10:31;;;;;;;;;;;14.00;73.10;;;13.11;68.56;96584.75;4048765;35;20071;-92
2022/05/11 03:13:01;;;;;;;;;;;14.00;73.10;;;13.09;68.73;96587.00;4027372;35;19905;-91
2022/05/11 03:15:29;;;;;;;;;;;14.00;73.20;;;13.11;68.61;96590.25;4048898;35;20370;-91
2022/05/11 03:17:59;;;;;;;;;;;14.00;73.10;;;13.11;68.37;96601.25;4070982;35;19921;-91
2022/05/11 03:20:28;;;;;;;;;;;14.00;73.20;;;13.10;68.56;96594.13;4048625;35;19905;-92
2022/05/11 03:22:57;;;;;;;;;;;14.00;73.10;;;13.09;68.60;96597.13;4027083;35;19912;-89
2022/05/11 03:25:27;;;;;;;;;;;14.00;73.20;;;13.11;68.60;96600.44;4027129;35;19912;-90
2022/05/11 03:27:55;;;;;;;;;;;14.00;73.10;;;13.10;68.37;96599.63;4027492;34;19912;-91
2022/05/11 03:30:27;;;;;;;;;;;14.00;73.20;;;13.10;68.50;96599.63;4072797;34;19905;-91
2022/05/11 03:35:43;;;;;;;;;;;14.00;73.20;;;13.10;68.62;96596.88;4029397;34;19905;-90
2022/05/11 03:38:12;;;;;;;;;;;14.00;73.20;;;13.08;68.63;96601.00;4028871;34;20204;-91
2022/05/11 03:40:41;;;;;;;;;;;14.00;73.20;;;13.09;68.61;96597.97;4050963;34;20461;-91
2022/05/11 03:43:09;;;;;;;;;;;14.00;73.20;;;13.11;68.70;96605.94;4029182;34;20118;-91
2022/05/11 03:45:38;;;;;;;;;;;14.00;73.20;;;13.10;68.62;96609.78;4050659;34;20402;-91
2022/05/11 03:48:08;;;;;;;;;;;14.00;73.20;;;13.10;68.57;96610.63;4039038;34;19904;-90
2022/05/11 03:50:36;;;;;;;;;;;14.00;73.20;;;13.09;68.61;96608.97;4019311;34;19905;-90
2022/05/11 03:53:06;;;;;;;;;;;14.00;73.20;;;13.11;68.50;96612.25;4029194;34;19904;-91
2022/05/11 03:55:35;;;;;;;;;;;14.00;73.10;;;13.10;68.71;96607.88;4029216;34;20298;-91
2022/05/11 03:58:04;;;;;;;;;;;14.00;73.20;;;13.11;68.50;96604.00;4050225;34;20309;-91
2022/05/11 04:00:33;;;;;;;;;;;14.00;73.00;;;13.09;68.58;96611.72;4050668;34;20031;-91
2022/05/11 04:03:01;;;;;;;;;;;14.00;73.00;;;13.11;68.47;96611.44;4029197;34;20132;-91
2022/05/11 04:05:32;;;;;;;;;;;14.00;72.90;;;13.12;68.37;96619.41;4050343;34;19908;-90
2022/05/11 04:08:00;;;;;;;;;;;14.00;73.00;;;13.11;68.56;96620.50;4028573;34;19913;-91
2022/05/11 04:10:30;;;;;;;;;;;14.00;73.00;;;13.11;68.23;96627.94;4029096;34;19905;-91
2022/05/11 04:13:00;;;;;;;;;;;14.00;72.90;;;13.11;68.27;96630.69;4050589;34;19905;-92
2022/05/11 04:15:29;;;;;;;;;;;14.00;72.90;;;13.10;68.31;96627.13;4050574;34;20193;-91
2022/05/11 04:17:58;;;;;;;;;;;14.00;72.80;;;13.12;68.47;96624.09;4071872;34;19905;-91
2022/05/11 04:20:27;;;;;;;;;;;14.00;72.80;;;13.12;68.26;96622.16;4029017;34;19905;-89
2022/05/11 04:22:56;;;;;;;;;;;14.00;72.80;;;13.12;68.36;96632.31;4050326;34;19912;-91
2022/05/11 04:25:24;;;;;;;;;;;14.00;72.80;;;13.10;68.23;96627.13;4050283;34;19912;-90
2022/05/11 04:27:54;;;;;;;;;;;14.00;72.80;;;13.12;68.49;96635.88;4028387;34;19905;-90
2022/05/11 04:30:26;;;;;;;;;;;14.00;72.90;;;13.12;68.59;96635.06;4050740;34;20170;-92
2022/05/11 04:32:55;;;;;;;;;;;14.00;73.00;;;13.12;68.62;96635.06;4072106;34;20060;-90
2022/05/11 04:35:30;;;;;;;;;;;14.00;72.90;;;13.11;68.40;96642.47;4028722;34;19905;-91
2022/05/11 04:37:58;;;;;;;;;;;14.00;72.90;;;13.12;68.51;96635.88;4049645;34;19916;-91
2022/05/11 04:40:28;;;;;;;;;;;14.00;72.80;;;13.13;68.40;96645.78;4049714;34;19912;-91
2022/05/11 04:42:58;;;;;;;;;;;14.00;72.90;;;13.13;68.47;96648.53;4050143;34;20108;-91
2022/05/11 04:45:26;;;;;;;;;;;14.00;72.80;;;13.12;68.33;96641.38;4028611;34;19905;-91
2022/05/11 04:47:55;;;;;;;;;;;14.00;72.80;;;13.12;68.27;96641.38;4067537;34;19904;-91
2022/05/11 04:50:25;;;;;;;;;;;14.00;72.80;;;13.14;68.27;96644.69;4053300;34;19912;-92
2022/05/11 04:52:53;;;;;;;;;;;14.00;72.80;;;13.14;68.13;96649.38;4049988;34;19905;-91
2022/05/11 04:55:22;;;;;;;;;;;14.00;72.70;;;13.12;68.22;96641.38;4028761;34;20243;-92
2022/05/11 04:57:50;;;;;;;;;;;14.10;72.90;;;13.12;68.20;96641.38;4028154;34;20239;-92
2022/05/11 05:00:21;;;;;;;;;;;14.00;72.80;;;13.13;68.21;96645.78;4028716;34;19905;-90
2022/05/11 05:02:50;;;;;;;;;;;14.00;72.70;;;13.15;68.09;96645.53;4028312;34;19983;-91
2022/05/11 05:05:20;;;;;;;;;;;14.10;72.80;;;13.15;68.20;96646.34;4050045;34;20044;-92
2022/05/11 05:07:49;;;;;;;;;;;14.00;72.70;;;13.14;68.37;96647.44;4028203;34;19912;-92
2022/05/11 05:10:21;;;;;;;;;;;14.00;72.70;;;13.14;68.19;96643.88;4049934;34;19911;-92
2022/05/11 05:12:50;;;;;;;;;;;14.10;72.70;;;13.17;68.17;96643.31;4028449;34;19954;-90
2022/05/11 05:15:20;;;;;;;;;;;14.00;72.70;;;13.15;68.18;96646.34;4028380;34;20354;-92
2022/05/11 05:17:52;;;;;;;;;;;14.00;72.70;;;13.17;68.13;96638.66;4049162;34;20217;-92
2022/05/11 05:20:22;;;;;;;;;;;14.00;72.60;;;13.18;68.02;96644.94;4049703;34;19904;-92
2022/05/11 05:22:50;;;;;;;;;;;14.10;72.60;;;13.17;68.34;96644.13;4028190;34;20407;-92
2022/05/11 05:25:19;;;;;;;;;;;14.10;72.50;;;13.18;68.13;96640.28;4049783;34;19905;-92
2022/05/11 05:27:50;;;;;;;;;;;14.10;72.60;;;13.18;68.04;96644.94;4049155;34;19912;-90
2022/05/11 05:33:03;;;;;;;;;;;14.10;72.60;;;13.19;68.30;96647.44;4038844;34;20107;-91
2022/05/11 05:35:32;;;;;;;;;;;14.10;72.60;;;13.18;68.04;96645.78;4028238;34;20178;-91
2022/05/11 05:38:00;;;;;;;;;;;14.10;72.70;;;13.23;68.26;96657.91;4049356;34;20111;-90
2022/05/11 05:40:29;;;;;;;;;;;14.10;72.80;;;13.22;68.30;96648.81;4049604;34;20131;-91
2022/05/11 05:42:58;;;;;;;;;;;14.20;72.80;;;13.25;68.40;96650.16;4028171;34;19927;-93
2022/05/11 05:45:28;;;;;;;;;;;14.20;73.00;;;13.28;68.62;96660.63;4049586;34;19928;-90
2022/05/11 05:47:56;;;;;;;;;;;14.20;73.20;;;13.28;68.73;96658.72;4049117;34;20381;-91
2022/05/11 05:50:25;;;;;;;;;;;14.20;73.40;;;13.29;68.97;96659.53;4070993;34;19925;-92
2022/05/11 05:52:55;;;;;;;;;;;14.20;73.80;;;13.30;69.02;96664.72;4028087;34;19905;-92
2022/05/11 05:55:24;;;;;;;;;;;14.20;73.70;;;13.33;69.23;96669.69;4049502;34;19905;-92
2022/05/11 05:57:52;;;;;;;;;;;14.20;73.80;;;13.37;69.24;96658.94;4027484;34;19916;-91
2022/05/11 06:00:22;;;;;;;;;;;14.30;74.00;;;13.41;69.24;96676.59;4049421;34;20247;-92
2022/05/11 06:02:52;;;;;;;;;;;14.30;73.80;;;13.44;68.88;96677.94;4027908;34;20136;-90
2022/05/11 06:05:21;;;;;;;;;;;14.30;73.70;;;13.52;69.29;96677.41;4027774;34;20106;-90
2022/05/11 06:07:49;;;;;;;;;;;14.40;73.60;;;13.60;68.64;96684.28;4047919;34;19905;-92
2022/05/11 06:10:18;;;;;;;;;;;14.50;73.40;;;13.65;68.59;96675.97;4027865;34;19904;-93
2022/05/11 06:12:47;;;;;;;;;;;14.50;73.20;;;13.74;68.43;96682.59;4027801;34;20320;-92
2022/05/11 06:15:15;;;;;;;;;;;14.60;72.80;;;13.80;68.11;96673.19;4070882;34;19905;-92
2022/05/11 06:17:44;;;;;;;;;;;14.70;72.70;;;13.83;68.08;96687.50;4027251;34;19995;-92
2022/05/11 06:20:14;;;;;;;;;;;14.80;72.40;;;13.88;67.96;96681.97;4049163;34;20170;-92
2022/05/11 06:22:43;;;;;;;;;;;14.80;72.20;;;13.91;67.82;96682.25;4027745;34;20573;-92
2022/05/11 06:25:11;;;;;;;;;;;14.90;72.20;;;13.96;67.75;96678.66;4049084;34;19905;-91
2022/05/11 06:27:40;;;;;;;;;;;14.90;72.10;;;14.00;67.62;96678.91;4071302;34;20389;-91
2022/05/11 06:30:11;;;;;;;;;;;14.90;72.00;;;14.01;67.60;96681.38;4027474;34;19905;-91
2022/05/11 06:32:39;;;;;;;;;;;14.90;71.90;;;14.05;67.52;96687.16;4049079;34;19936;-92
2022/05/11 06:35:09;;;;;;;;;;;15.00;71.80;;;14.06;67.59;96683.31;4027653;35;19905;-90
2022/05/11 06:37:41;;;;;;;;;;;15.00;71.80;;;14.10;67.42;96689.88;4027236;35;19905;-89
2022/05/11 06:40:12;;;;;;;;;;;15.00;71.70;;;14.14;67.59;96684.63;4027176;35;20056;-88
2022/05/11 06:42:41;;;;;;;;;;;15.00;71.70;;;14.18;67.31;96688.47;4048439;35;20119;-88
2022/05/11 06:45:11;;;;;;;;;;;15.10;71.70;;;14.19;67.30;96684.63;4026792;35;19905;-88
2022/05/11 06:47:40;;;;;;;;;;;15.10;71.60;;;14.20;67.13;96686.28;4026609;35;19905;-88
2022/05/11 06:50:11;;;;;;;;;;;15.10;71.60;;;14.20;67.51;96687.06;4048132;35;19910;-88
2022/05/11 06:52:42;;;;;;;;;;;15.10;71.60;;;14.23;66.96;96682.97;4048148;35;19905;-87
2022/05/11 07:00:42;;;;;;;;;;;15.10;71.50;;;14.30;67.04;96666.94;4026557;35;19905;-88
2022/05/11 07:03:11;;;;;;;;;;;15.20;71.50;;;14.32;66.93;96667.47;4049070;34;20085;-87
2022/05/11 07:05:39;;;;;;;;;;;15.20;71.40;;;14.35;66.98;96668.84;4028878;34;19904;-85
2022/05/11 07:08:10;;;;;;;;;;;15.20;71.40;;;14.36;66.97;96660.31;4028586;34;20113;-84
2022/05/11 07:10:38;;;;;;;;;;;15.20;71.40;;;14.38;66.93;96666.38;4028654;34;19905;-86
2022/05/11 07:13:07;;;;;;;;;;;15.20;71.30;;;14.41;66.97;96654.75;4028799;34;20106;-86
2022/05/11 07:15:36;;;;;;;;;;;15.20;71.20;;;14.43;66.75;96647.03;4050321;34;19905;-86
2022/05/11 07:18:05;;;;;;;;;;;15.30;71.30;;;14.47;66.84;96657.50;4028323;34;20136;-86
2022/05/11 07:20:36;;;;;;;;;;;15.30;71.30;;;14.49;66.67;96644.25;4071866;34;20058;-86
2022/05/11 07:23:05;;;;;;;;;;;15.30;71.20;;;14.53;66.59;96656.34;4049616;34;19905;-85
2022/05/11 07:25:35;;;;;;;;;;;15.30;71.10;;;14.55;66.51;96659.63;4028049;34;19912;-86
2022/05/11 07:28:05;;;;;;;;;;;15.40;71.00;;;14.57;66.64;96660.19;4049218;34;19912;-86
2022/05/11 07:30:35;;;;;;;;;;;15.40;71.80;;;14.57;66.58;96657.44;4027823;34;19928;-86
2022/05/11 07:33:04;;;;;;;;;;;15.40;70.80;;;14.57;66.46;96666.53;4027923;34;19905;-86
2022/05/11 07:35:32;;;;;;;;;;;15.40;70.80;;;14.60;66.54;96667.03;4027514;34;19912;-86
2022/05/11 07:38:01;;;;;;;;;;;15.40;70.80;;;14.59;66.50;96669.00;4070647;34;20005;-87
2022/05/11 07:40:30;;;;;;;;;;;15.40;70.80;;;14.61;66.49;96664.03;4027861;34;19904;-85
2022/05/11 07:43:01;;;;;;;;;;;15.40;70.80;;;14.61;66.16;96658.50;4049401;34;20294;-86
2022/05/11 07:45:29;;;;;;;;;;;15.50;71.00;;;14.61;66.58;96661.25;4070938;34;20024;-86
2022/05/11 07:47:58;;;;;;;;;;;15.50;70.90;;;14.61;66.57;96661.25;4027623;34;20254;-86
2022/05/11 07:50:27;;;;;;;;;;;15.50;70.90;;;14.63;66.51;96667.31;4071100;34;20041;-86
2022/05/11 07:52:55;;;;;;;;;;;15.50;70.90;;;14.63;66.31;96667.31;4027733;34;19912;-85
2022/05/11 07:55:25;;;;;;;;;;;15.50;70.90;;;14.63;66.20;96660.97;4049110;34;20128;-85
2022/05/11 08:00:41;;;;;;;;;;;15.50;70.90;;;14.63;66.48;96660.97;4027468;34;19912;-86
2022/05/11 08:03:11;;;;;;;;;;;15.50;70.90;;;14.63;66.31;96664.56;4049024;34;20236;-86
2022/05/11 08:05:40;;;;;;;;;;;15.50;70.90;;;14.63;66.42;96664.56;4049060;34;20178;-86
2022/05/11 08:08:09;;;;;;;;;;;15.50;70.90;;;14.62;66.63;96665.66;4027155;34;19905;-85
2022/05/11 08:10:40;;;;;;;;;;;15.50;70.90;;;14.64;66.48;96665.38;4048890;34;19912;-86
2022/05/11 08:13:08;;;;;;;;;;;15.50;70.90;;;14.64;66.50;96660.69;4048964;34;20373;-86
2022/05/11 08:15:39;;;;;;;;;;;15.50;70.90;;;14.64;66.51;96662.63;4048324;34;20070;-85
2022/05/11 08:18:09;;;;;;;;;;;15.50;70.90;;;14.64;66.46;96659.88;4048449;34;19988;-86
2022/05/11 08:20:40;;;;;;;;;;;15.50;70.80;;;14.64;66.49;96654.34;4027682;34;20231;-86
2022/05/11 08:23:09;;;;;;;;;;;15.50;70.80;;;14.62;66.80;96660.16;4027433;34;19911;-86
2022/05/11 08:25:39;;;;;;;;;;;15.50;70.90;;;14.61;66.76;96661.25;4048793;34;20025;-86
2022/05/11 08:28:11;;;;;;;;;;;15.50;71.00;;;14.61;66.61;96661.25;4027362;34;19928;-86
2022/05/11 08:33:27;;;;;;;;;;;15.50;71.00;;;14.57;66.70;96658.25;4027292;34;20009;-85
2022/05/11 08:35:58;;;;;;;;;;;15.50;71.10;;;14.55;66.93;96665.16;4071203;34;20011;-86
2022/05/11 08:38:29;;;;;;;;;;;15.50;71.20;;;14.52;66.78;96663.00;4027227;34;20086;-88
2022/05/11 08:41:00;;;;;;;;;;;15.40;71.10;;;14.51;67.11;96664.09;4048653;34;20043;-85
2022/05/11 08:43:31;;;;;;;;;;;15.40;71.20;;;14.49;67.01;96660.78;4027078;34;19990;-86
2022/05/11 08:46:09;;;;;;;;;;;15.40;71.30;;;14.46;66.67;96662.16;4048363;34;19905;-86
2022/05/11 08:48:47;;;;;;;;;;;15.40;71.30;;;14.45;67.03;96659.69;4038773;34;20210;-86
2022/05/11 08:51:22;;;;;;;;;;;15.30;71.40;;;14.44;67.21;96658.91;4070538;34;20143;-86
2022/05/11 08:53:52;;;;;;;;;;;15.30;71.50;;;14.44;67.31;96658.91;4040914;34;19905;-86
2022/05/11 08:56:31;;;;;;;;;;;15.30;71.50;;;14.43;67.44;96654.50;4048094;34;20031;-86
2022/05/11 08:59:00;;;;;;;;;;;15.30;71.50;;;14.40;67.38;96657.81;4064197;34;19905;-85
2022/05/11 09:01:34;;;;;;;;;;;15.30;71.60;;;14.39;67.48;96662.47;4048476;34;20042;-86
2022/05/11 09:04:08;;;;;;;;;;;15.30;71.60;;;14.38;67.50;96655.34;4070963;34;20248;-86
2022/05/11 09:06:38;;;;;;;;;;;15.30;71.70;;;14.37;67.54;96656.44;4059775;34;19912;-86
2022/05/11 09:09:07;;;;;;;;;;;15.30;71.80;;;14.37;67.66;96652.84;4057681;34;20179;-86
2022/05/11 09:11:40;;;;;;;;;;;15.30;71.90;;;14.35;68.12;96655.06;4026937;34;20151;-86
2022/05/11 09:14:13;;;;;;;;;;;15.20;71.80;;;14.34;67.65;96651.50;4048338;34;19972;-86
2022/05/11 09:16:51;;;;;;;;;;;15.20;71.80;;;14.30;67.52;96653.16;4047570;34;20383;-86
2022/05/11 09:19:26;;;;;;;;;;;15.20;72.00;;;14.31;67.72;96643.00;4026771;34;20357;-86
2022/05/11 09:21:58;;;;;;;;;;;15.20;72.00;;;14.31;67.80;96643.81;4048363;34;20212;-86
2022/05/11 09:24:32;;;;;;;;;;;15.20;72.00;;;14.31;67.81;96645.75;4048297;34;19905;-86
2022/05/11 09:27:09;;;;;;;;;;;15.20;72.10;;;14.27;67.77;96643.56;4026212;34;20391;-86
2022/05/11 09:29:40;;;;;;;;;;;15.20;72.10;;;14.29;68.03;96637.75;4069976;34;19905;-87
2022/05/11 09:32:29;;;;;;;;;;;15.20;72.30;;;14.29;67.99;96640.50;4070805;34;19979;-85
2022/05/11 09:35:20;;;;;;;;;;;15.20;72.30;;;14.30;68.26;96636.66;4026629;34;19912;-85
2022/05/11 09:38:05;;;;;;;;;;;15.20;72.30;;;14.31;67.91;96643.81;4047565;34;20428;-85
2022/05/11 09:40:56;;;;;;;;;;;15.20;72.30;;;14.31;67.89;96641.06;4026649;34;19905;-86
2022/05/11 09:47:05;;;;;;;;;;;15.20;72.30;;;14.28;67.98;96638.84;3996218;34;20060;-86
2022/05/11 09:49:42;;;;;;;;;;;15.20;72.40;;;14.24;67.96;96632.28;4048070;34;20233;-85
2022/05/11 09:52:28;;;;;;;;;;;15.20;72.40;;;14.27;68.11;96635.28;4026948;34;19904;-85
2022/05/11 10:05:32;;;;;;;;;;;15.20;72.60;;;14.24;67.94;96635.03;4094141;34;19914;-86
2022/05/11 10:08:11;;;;;;;;;;;15.20;72.70;;;14.24;68.28;96640.56;4051893;34;20007;-86
2022/05/11 10:10:42;;;;;;;;;;;15.10;72.80;;;14.22;68.33;96635.31;4119198;34;20219;-85
2022/05/11 10:13:17;;;;;;;;;;;15.10;72.80;;;14.21;68.53;96624.59;4077685;34;20250;-85
2022/05/11 10:22:07;;;;;;;;;;;15.10;72.80;;;14.23;68.41;96630.63;4122759;34;19904;-86
2022/05/11 10:25:18;;;;;;;;;;;15.10;72.80;;;14.21;68.50;96630.09;4095923;34;19911;-86
2022/05/11 10:28:25;;;;;;;;;;;;;;;;;;;;;
2022/05/11 10:34:47;;;;;;;;;;;15.10;73.00;;;14.15;68.55;96617.44;4092664;34;19927;-86
2022/05/11 10:37:20;;;;;;;;;;;15.10;73.10;;;14.13;68.83;96631.50;4099263;34;19904;-87
2022/05/11 10:40:29;;;;;;;;;;;15.00;73.00;;;14.12;68.75;96624.34;4078311;34;20010;-86
2022/05/11 10:43:19;;;;;;;;;;;15.00;73.10;;;14.14;68.85;96629.56;4077068;34;19927;-87
2022/05/11 10:45:53;;;;;;;;;;;15.00;73.20;;;14.10;68.80;96621.06;4078205;34;19904;-87
2022/05/11 10:48:56;;;;;;;;;;;15.00;73.10;;;14.10;68.77;96627.41;4077866;34;19984;-87
2022/05/11 10:51:30;;;;;;;;;;;15.00;73.20;;;14.09;68.94;96616.66;4100405;34;20068;-87
2022/05/11 10:54:49;;;;;;;;;;;;;;;;;;;;;
2022/05/11 10:57:24;;;;;;;;;;;15.00;73.20;;;14.11;68.75;96620.78;4022272;34;19911;-85
2022/05/11 11:03:59;;;;;;;;;;;15.00;73.20;;;14.12;68.78;96613.34;4032924;34;20041;-87
2022/05/11 11:09:51;;;;;;;;;;;15.00;73.30;;;14.14;68.86;96615.78;4062859;34;19905;-85
2022/05/11 11:12:34;;;;;;;;;;;15.00;73.20;;;14.14;68.62;96615.78;4071293;34;20062;-86
2022/05/11 11:15:07;;;;;;;;;;;15.00;73.20;;;14.15;68.57;96614.69;4095455;34;20117;-86
2022/05/11 11:17:36;;;;;;;;;;;15.00;73.10;;;14.15;68.76;96611.94;4051397;34;20291;-86
2022/05/11 11:20:08;;;;;;;;;;;15.00;73.20;;;14.16;68.77;96613.59;4073402;34;19904;-86
2022/05/11 11:23:12;;;;;;;;;;;15.10;73.20;;;14.17;68.71;96612.47;4073645;34;20022;-86
2022/05/11 11:25:51;;;;;;;;;;;15.10;73.30;;;14.16;68.74;96610.84;4073434;34;20061;-86
2022/05/11 11:28:22;;;;;;;;;;;15.10;73.20;;;14.14;68.75;96615.78;4073447;34;19949;-86
2022/05/11 11:31:20;;;;;;;;;;;15.00;73.20;;;14.13;68.55;96615.00;4073398;34;19904;-85
2022/05/11 11:34:18;;;;;;;;;;;15.00;73.20;;;14.12;68.92;96610.59;4073324;34;20126;-86
2022/05/11 11:36:47;;;;;;;;;;;15.00;73.20;;;14.13;68.74;96605.91;4072774;34;19912;-86
2022/05/11 11:39:56;;;;;;;;;;;15.00;73.30;;;14.14;68.86;96615.78;4073340;34;20248;-86
2022/05/11 11:42:34;;;;;;;;;;;15.00;73.20;;;14.14;69.02;96613.03;4073205;34;19905;-86
2022/05/11 11:46:04;;;;;;;;;;;15.00;73.30;;;14.12;68.72;96610.59;4051648;34;20059;-87
2022/05/11 11:48:39;;;;;;;;;;;15.00;73.20;;;14.13;68.97;96603.16;4073293;34;19913;-86
2022/05/11 11:51:13;;;;;;;;;;;15.00;73.30;;;14.11;68.79;96604.28;4075499;34;19911;-86
2022/05/11 11:53:56;;;;;;;;;;;15.00;73.30;;;14.12;68.76;96602.31;4097417;34;19904;-86
2022/05/11 11:56:47;;;;;;;;;;;15.00;73.30;;;14.14;68.89;96602.03;4064044;34;19913;-87
2022/05/11 11:59:49;;;;;;;;;;;15.00;73.30;;;14.13;68.86;96592.97;4075451;34;20239;-87
2022/05/11 12:02:28;;;;;;;;;;;15.00;73.20;;;14.11;68.85;96590.50;4022921;35;20288;-86
2022/05/11 12:05:27;;;;;;;;;;;15.00;73.30;;;14.15;68.90;96588.00;4001349;35;19982;-85
2022/05/11 12:16:25;;;;;;;;;;;15.00;73.30;;;14.16;68.58;96566.78;4093439;34;20035;-85
2022/05/11 12:18:54;;;;;;;;;;;15.00;73.20;;;14.16;68.80;96564.03;4075213;34;20131;-86
2022/05/11 12:21:30;;;;;;;;;;;15.10;73.30;;;14.14;68.72;96569.84;4053481;34;19981;-85
2022/05/11 12:28:21;;;;;;;;;;;15.00;73.20;;;14.14;68.94;96555.22;4070012;34;19907;-86
2022/05/11 12:30:49;;;;;;;;;;;15.00;73.30;;;14.12;68.96;96555.53;4053372;34;19911;-86
2022/05/11 12:33:25;;;;;;;;;;;15.00;73.30;;;14.15;68.90;96554.13;4094279;34;19912;-85
2022/05/11 12:35:54;;;;;;;;;;;15.00;73.30;;;14.15;68.72;96551.38;4067942;34;20459;-86
2022/05/11 12:38:39;;;;;;;;;;;15.00;73.30;;;14.14;68.98;96555.22;4097158;34;20027;-86
2022/05/11 12:41:18;;;;;;;;;;;15.00;73.30;;;14.13;68.88;96548.09;4071590;34;19920;-86
2022/05/11 12:43:57;;;;;;;;;;;15.00;73.30;;;14.12;69.07;96547.25;4027477;34;19952;-87
2022/05/11 12:46:26;;;;;;;;;;;15.00;73.40;;;14.12;69.21;96544.50;4071109;34;20088;-86
2022/05/11 12:48:56;;;;;;;;;;;15.00;73.40;;;14.11;68.92;96546.47;4027263;34;19951;-86
2022/05/11 12:51:31;;;;;;;;;;;15.00;73.40;;;14.11;68.97;96535.44;4027504;34;19912;-86